Hauptseite
METAR-TAF:

METAR-TAF

Flughäfen :

Aviano Air Base

Aviano, Italien

Breite: 46-02N, Länge: 012-36E, Höhe: 128 m

METAR: fehlend

Zeit: 02:02 (01:02 UTC)

Prognose

Neuester Wetterbericht von vor 5 Stunden und 2 Minuten, um 20:00 UTC
Gültige Prognose vom 15 um 21 UTC bis 16 um 06 UTC
Wind 5 kt aus unterschiedlichen Richtungen
Sichtweite 10 km oder mehr
keine Wolken unter 1500 m und keine Kumulonimbus oder Gewitterwolken

TAF: LIPA 152000Z 1521/1606 VRB05KT CAVOK

Wetterbeobachtungen und Prognosen von mehr als 4000 Flughäfen (METAR und TAF Bericht).

Die verfügbaren Stationen werden durch gelbe und rote Markierungen auf der Karte dargestellt.

Führen Sie die Maus auf sie, um den Namen der Station zu sehen.

Darauf klicken, um die Beobachtung von Wetterbeobachtungen und Prognosen zu sehen.

Um die Karte zu ändern : klicken Sie auf den grünen Tasten mit einem schwarzen Kreuz Zum Vergrößern, auf den grünen Button mit einem Gedankenstrich zu verkleinern, oder auf die grünen Pfeile für benachbarte Karten.


METAR-TAF: